Time;durP1;ratioP1;P1;durP2;ratioP2;P2;SDS_P1;SDS_P2;PMS_P1;PMS_P2;Temp;Humidity;BMP_temperature;BMP_pressure;BME280_temperature;BME280_humidity;BME280_pressure;Samples;Min_cycle;Max_cycle;Signal;HPM_P1;HPM_P2
2021/06/22 00:01:03;;;;;;;3.92;1.77;;;20.20;99.90;;;;;;5033415;28;20219;-80
2021/06/22 00:03:29;;;;;;;6.85;1.98;;;20.20;99.90;;;;;;5033371;28;20108;-80
2021/06/22 00:05:55;;;;;;;10.57;1.90;;;20.40;99.90;;;;;;5032046;28;20036;-81
2021/06/22 00:08:21;;;;;;;6.28;1.50;;;20.50;99.90;;;;;;5032018;28;20397;-81
2021/06/22 00:10:47;;;;;;;15.05;1.90;;;20.40;99.90;;;;;;5033818;28;20018;-81
2021/06/22 00:13:12;;;;;;;8.27;1.90;;;20.20;99.90;;;;;;5031963;28;20029;-80
2021/06/22 00:15:38;;;;;;;12.00;1.85;;;20.00;99.90;;;;;;5033238;28;20075;-81
2021/06/22 00:18:04;;;;;;;9.07;1.80;;;20.00;99.90;;;;;;5031946;28;20033;-81
2021/06/22 00:20:30;;;;;;;6.53;2.00;;;20.00;99.90;;;;;;5033213;28;20495;-80
2021/06/22 00:22:56;;;;;;;10.57;2.15;;;20.10;99.90;;;;;;5031861;28;20021;-81
2021/06/22 00:25:23;;;;;;;8.65;1.88;;;20.30;99.90;;;;;;5031873;28;20024;-81
2021/06/22 00:27:50;;;;;;;10.57;2.30;;;20.30;99.90;;;;;;5031857;28;20056;-80
2021/06/22 00:30:16;;;;;;;6.05;1.92;;;20.30;99.90;;;;;;5031817;28;20026;-80
2021/06/22 00:32:43;;;;;;;9.40;1.73;;;20.10;99.90;;;;;;5033322;28;20084;-80
2021/06/22 00:35:10;;;;;;;10.82;2.10;;;20.00;99.90;;;;;;5031679;28;20021;-81
2021/06/22 00:37:36;;;;;;;6.95;2.00;;;20.00;99.90;;;;;;5031537;28;20041;-81
2021/06/22 00:40:03;;;;;;;6.88;1.60;;;20.00;99.90;;;;;;5033841;28;20099;-81
2021/06/22 00:42:29;;;;;;;3.85;1.70;;;19.90;99.90;;;;;;5036934;28;20036;-80
2021/06/22 00:44:59;;;;;;;8.70;1.70;;;19.90;99.90;;;;;;5035680;28;20397;-81
2021/06/22 00:47:26;;;;;;;5.03;1.52;;;20.00;99.90;;;;;;5019607;28;20065;-81
2021/06/22 00:49:53;;;;;;;6.43;1.67;;;20.00;99.90;;;;;;5035538;28;20022;-80
2021/06/22 00:52:24;;;;;;;9.25;1.80;;;20.00;99.90;;;;;;5035612;28;20030;-80
2021/06/22 00:54:50;;;;;;;5.95;1.95;;;20.00;99.90;;;;;;5035543;28;20604;-80
2021/06/22 00:57:18;;;;;;;7.70;1.83;;;19.90;99.90;;;;;;5037317;28;20108;-81
2021/06/22 00:59:44;;;;;;;5.47;2.05;;;19.90;99.90;;;;;;5036666;28;20029;-81
2021/06/22 01:02:10;;;;;;;5.05;1.90;;;19.90;99.90;;;;;;5036229;28;20029;-81
2021/06/22 01:04:36;;;;;;;5.45;2.00;;;19.80;99.90;;;;;;5035380;28;20032;-80
2021/06/22 01:07:03;;;;;;;5.70;1.90;;;19.80;99.90;;;;;;5035289;28;20029;-81
2021/06/22 01:09:29;;;;;;;16.77;1.80;;;19.90;99.90;;;;;;5018842;28;20053;-81
2021/06/22 01:11:56;;;;;;;5.88;2.08;;;19.90;99.90;;;;;;5035229;28;20123;-81
2021/06/22 01:14:23;;;;;;;3.25;1.70;;;19.90;99.90;;;;;;5035161;28;20029;-81
2021/06/22 01:16:49;;;;;;;3.63;1.90;;;19.90;99.90;;;;;;5035143;28;20018;-81
2021/06/22 01:19:15;;;;;;;6.38;1.95;;;19.90;99.90;;;;;;5035042;28;20028;-81
2021/06/22 01:21:40;;;;;;;5.90;2.00;;;19.90;99.90;;;;;;5034996;28;20026;-81
2021/06/22 01:24:20;;;;;;;9.23;1.83;;;19.90;99.90;;;;;;5034986;28;20048;-81
2021/06/22 01:26:54;;;;;;;2.78;1.73;;;19.90;99.90;;;;;;5036249;28;20488;-80
2021/06/22 01:29:20;;;;;;;;;;;20.00;99.90;;;;;;5036574;28;20029;-80
2021/06/22 01:31:46;;;;;;;4.25;1.58;;;19.90;99.90;;;;;;5034885;28;20024;-81
2021/06/22 01:34:12;;;;;;;6.15;1.75;;;20.00;99.90;;;;;;5034761;28;20511;-81
2021/06/22 01:36:40;;;;;;;4.90;1.50;;;19.90;99.90;;;;;;5035857;28;20112;-81
2021/06/22 01:39:10;;;;;;;4.03;1.70;;;20.10;99.90;;;;;;5036238;28;20083;-81
2021/06/22 01:41:36;;;;;;;3.45;1.45;;;20.00;99.90;;;;;;5034700;28;20033;-81
2021/06/22 01:44:02;;;;;;;2.97;1.50;;;19.90;99.90;;;;;;5036223;28;20446;-81
2021/06/22 01:46:28;;;;;;;10.55;2.08;;;19.90;99.90;;;;;;5034657;28;20025;-81
2021/06/22 01:48:53;;;;;;;5.28;1.60;;;20.00;99.90;;;;;;5034477;28;20037;-81
2021/06/22 01:51:19;;;;;;;5.05;1.73;;;20.00;99.90;;;;;;5035488;28;20427;-81
2021/06/22 01:53:53;;;;;;;5.10;1.60;;;19.90;99.90;;;;;;5036021;28;20033;-81
2021/06/22 01:56:19;;;;;;;4.80;1.70;;;20.00;99.90;;;;;;5034492;28;20477;-81
2021/06/22 01:58:44;;;;;;;7.10;1.70;;;19.90;99.90;;;;;;5034357;28;20394;-81
2021/06/22 02:01:10;;;;;;;4.88;1.60;;;19.90;99.90;;;;;;5034260;28;20112;-81
2021/06/22 02:03:36;;;;;;;7.07;1.63;;;20.00;99.90;;;;;;5034272;28;20033;-81
2021/06/22 02:06:02;;;;;;;6.60;2.03;;;20.10;99.90;;;;;;5035448;28;20026;-81
2021/06/22 02:08:27;;;;;;;6.65;1.48;;;20.10;99.90;;;;;;5035412;28;20120;-81
2021/06/22 02:10:53;;;;;;;7.13;1.80;;;20.30;99.90;;;;;;5034056;28;20063;-81
2021/06/22 02:13:20;;;;;;;7.30;1.77;;;20.20;99.90;;;;;;5034055;28;20075;-81
2021/06/22 02:15:46;;;;;;;6.15;1.73;;;20.20;99.90;;;;;;5035329;28;20018;-81
2021/06/22 02:18:13;;;;;;;4.30;2.05;;;20.00;99.90;;;;;;5033986;28;20029;-81
2021/06/22 02:20:40;;;;;;;4.68;1.60;;;20.00;99.90;;;;;;5035168;28;20028;-81
2021/06/22 02:23:07;;;;;;;12.80;1.88;;;20.00;99.90;;;;;;5033880;28;20030;-81
2021/06/22 02:25:33;;;;;;;5.60;1.70;;;20.00;99.90;;;;;;5035164;28;20477;-81
2021/06/22 02:28:07;;;;;;;4.85;1.70;;;20.00;99.90;;;;;;5035006;28;20056;-81
2021/06/22 02:30:34;;;;;;;3.35;1.88;;;19.80;99.90;;;;;;5033720;28;20029;-81
2021/06/22 02:33:00;;;;;;;3.92;1.95;;;19.70;99.90;;;;;;5033779;28;20524;-79
2021/06/22 02:35:26;;;;;;;5.40;1.52;;;19.70;99.90;;;;;;5033419;28;20022;-79
2021/06/22 02:37:52;;;;;;;6.55;1.40;;;19.90;99.90;;;;;;5033683;28;20032;-79
2021/06/22 02:40:19;;;;;;;8.45;1.70;;;20.00;99.90;;;;;;5034890;28;20424;-79
2021/06/22 02:42:46;;;;;;;8.23;1.80;;;19.90;99.90;;;;;;5035099;28;20025;-79
2021/06/22 02:45:13;;;;;;;4.97;1.50;;;19.80;99.90;;;;;;5034751;28;20025;-79
2021/06/22 02:47:38;;;;;;;8.70;1.70;;;19.70;99.90;;;;;;5034648;28;20554;-80
2021/06/22 02:50:05;;;;;;;5.32;1.50;;;19.60;99.90;;;;;;5034868;28;20100;-79
2021/06/22 02:52:31;;;;;;;3.92;1.50;;;19.60;99.90;;;;;;5034845;28;20022;-79
2021/06/22 02:54:56;;;;;;;5.28;1.23;;;19.60;99.90;;;;;;5033384;28;20037;-79
2021/06/22 02:57:22;;;;;;;3.60;1.55;;;19.50;99.90;;;;;;5033307;28;20045;-79
2021/06/22 02:59:48;;;;;;;5.93;1.50;;;19.50;99.90;;;;;;5034765;28;20104;-79
2021/06/22 03:02:13;;;;;;;2.85;1.50;;;19.50;99.90;;;;;;5033757;28;20388;-79
2021/06/22 03:04:39;;;;;;;4.22;1.58;;;19.50;99.90;;;;;;5034715;28;20029;-79
2021/06/22 03:07:05;;;;;;;5.75;1.52;;;19.50;99.90;;;;;;5033108;28;20433;-79
2021/06/22 03:09:31;;;;;;;3.67;1.65;;;19.60;99.90;;;;;;5034223;28;20419;-79
2021/06/22 03:11:56;;;;;;;6.03;1.75;;;19.70;99.90;;;;;;5034260;28;20017;-79
2021/06/22 03:14:23;;;;;;;5.43;1.85;;;19.70;99.90;;;;;;5032934;28;20025;-79
2021/06/22 03:16:50;;;;;;;5.53;1.95;;;19.70;99.90;;;;;;5033509;28;20350;-79
2021/06/22 03:19:16;;;;;;;10.13;2.00;;;19.50;99.90;;;;;;5034105;28;20029;-79
2021/06/22 03:21:45;;;;;;;4.55;1.90;;;19.60;99.90;;;;;;5034097;28;20056;-79
2021/06/22 03:24:12;;;;;;;3.08;1.40;;;19.60;99.90;;;;;;5032795;28;20436;-79
2021/06/22 03:26:39;;;;;;;9.55;1.73;;;19.70;99.90;;;;;;5032877;28;20053;-79
2021/06/22 03:29:05;;;;;;;4.65;1.88;;;19.50;99.90;;;;;;5032600;28;20116;-79
2021/06/22 03:31:32;;;;;;;5.53;1.50;;;19.50;99.90;;;;;;5032618;28;20481;-79
2021/06/22 03:33:57;;;;;;;7.72;2.33;;;19.50;99.90;;;;;;5033766;28;20060;-79
2021/06/22 03:36:23;;;;;;;15.32;2.80;;;19.40;99.90;;;;;;5032304;28;20493;-79
2021/06/22 03:38:49;;;;;;;5.32;2.50;;;19.30;99.90;;;;;;5032535;28;20462;-79
2021/06/22 03:41:15;;;;;;;4.45;2.97;;;19.30;99.90;;;;;;5034299;28;20104;-79
2021/06/22 03:43:41;;;;;;;5.53;3.17;;;19.50;99.90;;;;;;5032386;28;20025;-79
2021/06/22 03:46:07;;;;;;;10.57;4.00;;;19.40;99.90;;;;;;5032374;28;20037;-79
2021/06/22 03:48:33;;;;;;;6.65;4.63;;;19.30;99.90;;;;;;5032377;28;20037;-79
2021/06/22 03:50:59;;;;;;;13.23;4.40;;;19.10;99.90;;;;;;5033576;28;20028;-79
2021/06/22 03:53:25;;;;;;;6.63;3.80;;;19.20;99.90;;;;;;5032238;28;20100;-79
2021/06/22 03:55:51;;;;;;;6.78;3.65;;;19.30;99.90;;;;;;5032256;28;20037;-79
2021/06/22 03:58:17;;;;;;;5.43;3.50;;;19.30;99.90;;;;;;5033554;28;20019;-79
2021/06/22 04:00:43;;;;;;;7.20;3.55;;;19.40;99.90;;;;;;5032246;28;20084;-79
2021/06/22 04:03:13;;;;;;;8.68;3.55;;;19.40;99.90;;;;;;5032176;28;20541;-79
2021/06/22 04:05:39;;;;;;;8.45;3.65;;;19.40;99.90;;;;;;5033419;28;20056;-79
2021/06/22 04:08:05;;;;;;;6.97;3.00;;;19.30;99.90;;;;;;5031952;28;20059;-79
2021/06/22 04:10:31;;;;;;;5.78;2.78;;;19.40;99.90;;;;;;5032931;28;20112;-79
2021/06/22 04:12:57;;;;;;;7.05;2.50;;;19.40;99.90;;;;;;5033321;28;20489;-79
2021/06/22 04:15:23;;;;;;;8.68;2.67;;;19.30;99.90;;;;;;5033300;28;20037;-79
2021/06/22 04:17:49;;;;;;;9.52;2.63;;;19.30;99.90;;;;;;5032027;28;20026;-79
2021/06/22 04:20:15;;;;;;;7.15;2.75;;;19.40;99.90;;;;;;5032070;28;20052;-79
2021/06/22 04:22:40;;;;;;;8.52;2.65;;;19.50;99.90;;;;;;5033478;28;20030;-79
2021/06/22 04:25:07;;;;;;;6.07;2.50;;;19.60;99.90;;;;;;5031937;28;20041;-80
2021/06/22 04:27:33;;;;;;;7.90;2.47;;;19.50;99.90;;;;;;5031904;28;20087;-79
2021/06/22 04:29:59;;;;;;;8.10;3.40;;;19.50;99.90;;;;;;5031808;28;20378;-79
2021/06/22 04:32:25;;;;;;;7.90;2.95;;;19.40;99.90;;;;;;5031858;28;20032;-79
2021/06/22 04:34:51;;;;;;;5.10;2.85;;;19.40;99.90;;;;;;5033273;28;20052;-79
2021/06/22 04:37:17;;;;;;;10.60;3.20;;;19.40;99.90;;;;;;5031657;28;20045;-79
2021/06/22 04:39:43;;;;;;;5.60;3.47;;;19.40;99.90;;;;;;5032061;28;20044;-79
2021/06/22 04:42:09;;;;;;;6.78;2.80;;;19.50;99.90;;;;;;5031745;28;20429;-79
2021/06/22 04:44:34;;;;;;;4.18;2.70;;;19.50;99.90;;;;;;5031745;28;20043;-79
2021/06/22 04:47:00;;;;;;;6.13;2.55;;;19.60;99.90;;;;;;5031778;28;20029;-79
2021/06/22 04:49:26;;;;;;;7.63;2.28;;;19.60;99.90;;;;;;5033205;28;20061;-79
2021/06/22 04:51:51;;;;;;;8.48;2.67;;;19.70;99.90;;;;;;5032959;28;20026;-79
2021/06/22 04:54:17;;;;;;;6.80;2.50;;;19.60;99.90;;;;;;5032921;28;20025;-79
2021/06/22 04:56:46;;;;;;;7.60;2.55;;;19.70;99.90;;;;;;5031663;28;20036;-79
2021/06/22 04:59:12;;;;;;;6.95;2.28;;;20.00;99.90;;;;;;5031606;28;20388;-79
2021/06/22 05:01:37;;;;;;;9.07;2.80;;;20.30;99.90;;;;;;5033388;28;20029;-79
2021/06/22 05:04:03;;;;;;;10.63;2.70;;;20.30;99.90;;;;;;5033078;28;20029;-79
2021/06/22 05:06:29;;;;;;;8.00;2.20;;;20.30;99.90;;;;;;5031648;28;20034;-79
2021/06/22 05:08:54;;;;;;;8.93;2.80;;;20.40;99.90;;;;;;5031488;28;20029;-79
2021/06/22 05:11:20;;;;;;;5.20;2.10;;;20.40;99.90;;;;;;5033039;28;20124;-79
2021/06/22 05:13:46;;;;;;;5.55;2.63;;;20.40;99.90;;;;;;5031490;28;20093;-79
2021/06/22 05:16:11;;;;;;;7.78;2.90;;;20.50;99.90;;;;;;5031468;28;20026;-79
2021/06/22 05:18:37;;;;;;;6.82;2.90;;;20.40;99.90;;;;;;5031385;28;20026;-79
2021/06/22 05:21:03;;;;;;;7.38;2.40;;;20.20;99.90;;;;;;5031395;28;20116;-79
2021/06/22 05:23:29;;;;;;;4.22;2.58;;;20.40;99.90;;;;;;5031395;28;20068;-79
2021/06/22 05:25:55;;;;;;;4.70;1.90;;;20.30;99.90;;;;;;5033100;28;20517;-79
2021/06/22 05:28:21;;;;;;;5.53;2.15;;;20.40;99.90;;;;;;5036462;28;20030;-79
2021/06/22 05:30:46;;;;;;;5.15;2.53;;;20.40;99.90;;;;;;5034894;28;20021;-79
2021/06/22 05:33:12;;;;;;;6.38;2.42;;;20.60;99.90;;;;;;5036176;28;20138;-79
2021/06/22 05:35:38;;;;;;;6.20;2.13;;;20.40;99.90;;;;;;5035853;28;20029;-79
2021/06/22 05:38:04;;;;;;;4.38;2.13;;;20.30;99.90;;;;;;5034875;28;20026;-79
2021/06/22 05:40:30;;;;;;;10.52;2.40;;;20.20;99.90;;;;;;5034778;28;20117;-79
2021/06/22 05:42:55;;;;;;;3.10;2.05;;;20.20;99.90;;;;;;5035949;28;20488;-79
2021/06/22 05:45:21;;;;;;;4.20;1.88;;;20.30;99.90;;;;;;5036153;28;20101;-79
2021/06/22 05:47:47;;;;;;;5.50;1.80;;;20.40;99.90;;;;;;5034668;28;20021;-79
2021/06/22 05:50:13;;;;;;;3.50;1.77;;;20.30;99.90;;;;;;5034572;28;20435;-79
2021/06/22 05:52:39;;;;;;;4.80;1.92;;;20.10;99.90;;;;;;5035863;28;20026;-79
2021/06/22 05:55:16;;;;;;;8.45;1.80;;;20.10;99.90;;;;;;5034535;28;20148;-79
2021/06/22 05:57:47;;;;;;;6.05;2.00;;;20.20;99.90;;;;;;5036083;28;20051;-79
2021/06/22 06:00:15;;;;;;;4.85;2.22;;;20.30;99.90;;;;;;5034980;28;20032;-79
2021/06/22 06:02:41;;;;;;;4.82;2.10;;;20.20;99.90;;;;;;5034353;28;20025;-79
2021/06/22 06:05:08;;;;;;;3.58;1.70;;;20.40;99.90;;;;;;5034300;28;20530;-79
2021/06/22 06:07:35;;;;;;;4.40;1.63;;;20.50;99.90;;;;;;5034183;28;20096;-79
2021/06/22 06:10:02;;;;;;;3.53;1.70;;;20.40;99.90;;;;;;5034181;28;20029;-79
2021/06/22 06:12:27;;;;;;;3.05;1.60;;;20.50;99.90;;;;;;5034207;28;20543;-79
2021/06/22 06:14:53;;;;;;;3.53;1.58;;;20.60;99.90;;;;;;5034168;28;20026;-79
2021/06/22 06:17:19;;;;;;;3.75;1.60;;;20.40;99.90;;;;;;5035404;28;20516;-79
2021/06/22 06:19:45;;;;;;;10.15;2.20;;;20.50;99.90;;;;;;5035314;28;20366;-79
2021/06/22 06:22:10;;;;;;;6.32;2.00;;;20.50;99.90;;;;;;5033986;28;20025;-79
2021/06/22 06:24:36;;;;;;;5.75;2.10;;;20.40;99.90;;;;;;5035436;28;20473;-79
2021/06/22 06:30:04;;;;;;;5.75;1.83;;;20.40;99.90;;;;;;5035014;28;20021;-79
2021/06/22 06:32:20;;;;;;;3.70;1.67;;;20.40;99.90;;;;;;5031806;28;20026;-79
2021/06/22 06:34:45;;;;;;;4.00;2.13;;;20.40;99.90;;;;;;5034891;28;20477;-79
2021/06/22 06:37:12;;;;;;;6.65;2.40;;;20.30;99.90;;;;;;5033882;28;20048;-79
2021/06/22 06:39:37;;;;;;;7.85;2.00;;;20.40;99.90;;;;;;5033699;28;20072;-79
2021/06/22 06:42:03;;;;;;;4.82;2.22;;;20.50;99.90;;;;;;5034903;28;20108;-79
2021/06/22 06:44:29;;;;;;;7.53;2.40;;;20.50;99.90;;;;;;5035366;28;20029;-79
2021/06/22 06:46:55;;;;;;;4.93;2.25;;;20.50;99.90;;;;;;5034774;28;20064;-79
2021/06/22 06:49:21;;;;;;;8.93;2.47;;;20.50;99.90;;;;;;5034648;28;20036;-79
2021/06/22 06:51:46;;;;;;;3.80;2.47;;;20.40;99.90;;;;;;5033695;28;20044;-79
2021/06/22 06:54:12;;;;;;;6.40;2.28;;;20.40;99.90;;;;;;5033433;28;20029;-79
2021/06/22 06:56:38;;;;;;;5.85;2.75;;;20.60;99.90;;;;;;5033360;28;20018;-79
2021/06/22 06:59:03;;;;;;;6.60;2.50;;;20.60;99.90;;;;;;5033232;28;20029;-79
2021/06/22 07:01:29;;;;;;;6.85;2.33;;;20.60;99.90;;;;;;5033226;28;20029;-79
2021/06/22 07:03:55;;;;;;;7.22;2.50;;;20.60;99.90;;;;;;5034425;28;20033;-79
2021/06/22 07:06:21;;;;;;;6.95;2.65;;;20.60;99.90;;;;;;5034384;28;20390;-79
2021/06/22 07:08:47;;;;;;;3.03;1.75;;;20.60;99.90;;;;;;5034284;28;20022;-79
2021/06/22 07:11:13;;;;;;;4.93;2.35;;;20.50;99.90;;;;;;5034550;28;20469;-79
2021/06/22 07:13:39;;;;;;;3.83;1.90;;;20.30;99.90;;;;;;5034234;28;20436;-79
2021/06/22 07:16:05;;;;;;;3.85;2.00;;;20.30;99.90;;;;;;5032872;28;20437;-79
2021/06/22 07:18:32;;;;;;;5.38;1.80;;;20.40;99.90;;;;;;5034127;28;20033;-79
2021/06/22 07:20:58;;;;;;;4.07;1.90;;;20.50;99.90;;;;;;5032818;28;20136;-79
2021/06/22 07:23:25;;;;;;;4.55;2.20;;;20.50;99.90;;;;;;5034095;28;20477;-79
2021/06/22 07:25:51;;;;;;;3.40;2.17;;;20.50;99.90;;;;;;5034039;28;20069;-79
2021/06/22 07:28:16;;;;;;;8.52;2.55;;;20.60;99.90;;;;;;5032625;28;20431;-79
2021/06/22 07:30:42;;;;;;;11.85;2.50;;;20.70;99.90;;;;;;5033930;28;20018;-79
2021/06/22 07:33:08;;;;;;;5.70;1.95;;;20.70;99.90;;;;;;5032573;28;20067;-79
2021/06/22 07:35:33;;;;;;;4.38;1.83;;;20.80;99.90;;;;;;5032287;28;20507;-79
2021/06/22 07:38:00;;;;;;;2.90;2.05;;;20.90;99.90;;;;;;5033896;28;20022;-79
2021/06/22 07:40:26;;;;;;;6.90;2.08;;;20.90;99.90;;;;;;5032439;28;20030;-79
2021/06/22 07:42:53;;;;;;;3.17;1.80;;;20.80;99.90;;;;;;5032398;28;20029;-79
2021/06/22 07:45:20;;;;;;;4.05;1.90;;;20.90;99.90;;;;;;5033735;28;20025;-79
2021/06/22 07:47:46;;;;;;;4.07;1.75;;;20.90;99.90;;;;;;5033485;28;20393;-78
2021/06/22 07:50:12;;;;;;;3.05;1.77;;;21.10;99.90;;;;;;5032369;28;20433;-78
2021/06/22 07:52:38;;;;;;;5.05;1.83;;;21.30;99.90;;;;;;5032392;28;20025;-78
2021/06/22 07:55:06;;;;;;;3.53;1.88;;;21.40;99.90;;;;;;5032277;28;20076;-79
2021/06/22 07:57:32;;;;;;;5.55;1.70;;;21.40;99.90;;;;;;5033502;28;20025;-78
2021/06/22 07:59:57;;;;;;;3.65;1.55;;;21.40;99.90;;;;;;5033516;28;20021;-78
2021/06/22 08:02:23;;;;;;;4.47;1.70;;;21.60;99.90;;;;;;5032181;28;20489;-79
2021/06/22 08:04:49;;;;;;;3.47;1.27;;;21.70;99.90;;;;;;5032470;28;20485;-79
2021/06/22 08:07:14;;;;;;;6.93;2.03;;;21.80;99.90;;;;;;5033412;28;20473;-78
2021/06/22 08:09:40;;;;;;;6.97;1.35;;;21.80;99.90;;;;;;5032047;28;20026;-79
2021/06/22 08:12:06;;;;;;;5.03;1.38;;;21.90;99.90;;;;;;5033369;28;20389;-79
2021/06/22 08:14:32;;;;;;;5.13;1.38;;;22.00;99.90;;;;;;5033352;28;20029;-79
2021/06/22 08:16:57;;;;;;;3.00;1.50;;;22.00;99.90;;;;;;5033309;28;20018;-79
2021/06/22 08:19:23;;;;;;;4.28;1.67;;;22.20;99.90;;;;;;5032267;28;20029;-79
2021/06/22 08:21:49;;;;;;;3.67;1.50;;;22.20;99.90;;;;;;5031956;28;20083;-79
2021/06/22 08:24:14;;;;;;;4.95;1.58;;;22.50;99.90;;;;;;5031999;28;20084;-79
2021/06/22 08:26:40;;;;;;;4.85;1.90;;;22.20;99.90;;;;;;5031918;28;20362;-79
2021/06/22 08:29:06;;;;;;;2.60;1.45;;;22.10;99.90;;;;;;5031894;28;20037;-79
2021/06/22 08:31:32;;;;;;;4.85;1.77;;;22.40;99.90;;;;;;5033734;28;20018;-79
2021/06/22 08:33:57;;;;;;;4.07;1.60;;;22.60;99.90;;;;;;5033137;28;20079;-79
2021/06/22 08:36:23;;;;;;;3.47;1.75;;;22.40;99.90;;;;;;5033235;28;20126;-79
2021/06/22 08:38:49;;;;;;;7.70;1.83;;;22.00;99.90;;;;;;5032314;28;20025;-78
2021/06/22 08:41:15;;;;;;;6.13;1.60;;;21.80;99.90;;;;;;5031901;28;20499;-78
2021/06/22 08:43:43;;;;;;;5.30;1.50;;;21.70;99.90;;;;;;5033355;28;20034;-78
2021/06/22 08:46:10;;;;;;;4.78;1.85;;;21.60;99.90;;;;;;5031858;28;20036;-78
2021/06/22 08:48:39;;;;;;;7.20;1.90;;;21.60;99.90;;;;;;5032971;28;20026;-79
2021/06/22 08:51:05;;;;;;;5.20;1.60;;;21.60;99.90;;;;;;5031682;28;20112;-80
2021/06/22 08:53:31;;;;;;;5.80;1.65;;;21.70;99.90;;;;;;5031771;28;20022;-79
2021/06/22 08:55:57;;;;;;;7.22;1.85;;;21.50;99.90;;;;;;5031683;28;20028;-79
2021/06/22 08:58:25;;;;;;;6.45;1.70;;;21.60;99.90;;;;;;5031864;28;20021;-79
2021/06/22 09:00:51;;;;;;;6.32;1.80;;;21.70;99.90;;;;;;5033353;28;20115;-78
2021/06/22 09:03:26;;;;;;;3.63;1.70;;;21.90;99.90;;;;;;5036992;28;20025;-79
2021/06/22 09:05:54;;;;;;;6.45;1.98;;;22.20;99.90;;;;;;5037045;28;20025;-79
2021/06/22 09:08:29;;;;;;;5.63;1.90;;;22.20;99.90;;;;;;5036627;28;20366;-79
2021/06/22 09:11:12;;;;;;;4.15;1.80;;;22.30;99.90;;;;;;5036906;28;20485;-79
2021/06/22 09:13:41;;;;;;;2.03;1.50;;;22.30;99.90;;;;;;5036629;28;20051;-80
2021/06/22 09:16:09;;;;;;;3.38;2.00;;;22.10;99.90;;;;;;5035304;28;20024;-80
2021/06/22 09:18:37;;;;;;;3.25;2.10;;;22.10;99.90;;;;;;5035191;28;20021;-79
2021/06/22 09:21:07;;;;;;;5.97;1.80;;;22.10;99.90;;;;;;5036431;28;20389;-80
2021/06/22 09:23:35;;;;;;;5.22;2.17;;;21.90;99.90;;;;;;5035136;28;20497;-79
2021/06/22 09:26:09;;;;;;;3.00;1.73;;;21.60;99.90;;;;;;5036634;28;20024;-78
2021/06/22 09:28:35;;;;;;;2.60;1.98;;;21.60;99.90;;;;;;5034958;28;20120;-79
2021/06/22 09:31:03;;;;;;;3.30;2.00;;;21.50;99.90;;;;;;5035041;28;20112;-78
2021/06/22 09:33:42;;;;;;;5.53;2.10;;;21.30;99.90;;;;;;5036224;28;20116;-78
2021/06/22 09:36:14;;;;;;;3.05;2.35;;;21.20;99.90;;;;;;5034713;28;20580;-78
2021/06/22 09:38:54;;;;;;;6.10;2.80;;;21.00;99.90;;;;;;5036425;28;20496;-79
2021/06/22 09:41:29;;;;;;;6.88;1.95;;;20.80;99.90;;;;;;5036124;28;20542;-79
2021/06/22 09:44:08;;;;;;;6.38;3.03;;;20.90;99.90;;;;;;5037623;28;20021;-80
2021/06/22 09:46:49;;;;;;;8.73;2.90;;;21.00;99.90;;;;;;5036102;28;20033;-81
2021/06/22 09:49:27;;;;;;;6.90;3.22;;;21.00;99.90;;;;;;5035759;28;20033;-81
2021/06/22 09:52:04;;;;;;;5.30;3.22;;;21.00;99.90;;;;;;5034625;28;20029;-81
2021/06/22 09:54:31;;;;;;;5.75;3.45;;;20.90;99.90;;;;;;5034577;28;20491;-81
2021/06/22 09:57:13;;;;;;;3.20;2.67;;;21.00;99.90;;;;;;5034567;28;20026;-81
2021/06/22 10:00:07;;;;;;;;;;;;;;;;;;;;;
2021/06/22 10:02:55;;;;;;;5.70;3.58;;;20.90;99.90;;;;;;5035907;28;20029;-81
2021/06/22 10:05:21;;;;;;;5.03;3.10;;;20.80;99.90;;;;;;5034297;28;20120;-81
2021/06/22 10:07:47;;;;;;;5.68;3.70;;;20.70;99.90;;;;;;5035504;28;20531;-81
2021/06/22 10:10:13;;;;;;;6.07;3.05;;;20.90;99.90;;;;;;5033780;28;20021;-80
2021/06/22 10:12:41;;;;;;;7.45;3.42;;;20.90;99.90;;;;;;5034030;28;20022;-81
2021/06/22 10:15:08;;;;;;;6.65;3.10;;;20.80;99.90;;;;;;5035375;28;20018;-80
2021/06/22 10:17:35;;;;;;;4.88;3.35;;;20.70;99.90;;;;;;5035332;28;20493;-80
2021/06/22 10:20:07;;;;;;;6.93;3.42;;;20.60;99.90;;;;;;5034019;28;20040;-81
2021/06/22 10:22:36;;;;;;;4.85;3.40;;;20.40;99.90;;;;;;5034087;28;20033;-82
2021/06/22 10:25:03;;;;;;;5.68;2.53;;;20.50;99.90;;;;;;5034002;28;20480;-81
2021/06/22 10:27:30;;;;;;;4.47;3.35;;;20.70;99.90;;;;;;5033854;28;20021;-81
2021/06/22 10:29:59;;;;;;;4.05;3.47;;;20.50;99.90;;;;;;5033819;28;20029;-80
2021/06/22 10:32:26;;;;;;;4.80;3.75;;;20.30;99.90;;;;;;5035108;28;20018;-81
2021/06/22 10:34:59;;;;;;;8.32;3.50;;;20.30;99.90;;;;;;5017203;28;20035;-80
2021/06/22 10:37:28;;;;;;;6.28;4.38;;;20.30;99.90;;;;;;5033589;28;20076;-81
2021/06/22 10:40:16;;;;;;;8.68;4.88;;;20.20;99.90;;;;;;5033645;28;20507;-81
2021/06/22 10:42:47;;;;;;;6.95;4.22;;;20.20;99.90;;;;;;5035144;28;20036;-81
2021/06/22 10:45:14;;;;;;;8.32;4.90;;;20.00;99.90;;;;;;5033650;28;20060;-80
2021/06/22 10:47:43;;;;;;;8.55;5.75;;;19.90;99.90;;;;;;5017336;28;20033;-80
2021/06/22 10:50:24;;;;;;;4.90;3.80;;;19.90;99.90;;;;;;5033339;28;20108;-80
2021/06/22 10:53:10;;;;;;;9.23;4.68;;;19.90;99.90;;;;;;5034748;28;20018;-80
2021/06/22 10:55:41;;;;;;;11.63;4.72;;;19.90;99.90;;;;;;5017107;28;20026;-80
2021/06/22 10:58:08;;;;;;;5.07;4.47;;;19.80;99.90;;;;;;5033374;28;20075;-80
2021/06/22 11:00:40;;;;;;;4.18;3.35;;;19.80;99.90;;;;;;5034781;28;20397;-81
2021/06/22 11:03:07;;;;;;;4.55;3.45;;;20.00;99.90;;;;;;5033227;28;20022;-80
2021/06/22 11:05:35;;;;;;;6.72;4.30;;;20.20;99.90;;;;;;5033130;28;20527;-80
2021/06/22 11:08:13;;;;;;;4.53;4.10;;;20.40;99.90;;;;;;5034419;28;20025;-81
2021/06/22 11:10:40;;;;;;;6.97;3.22;;;20.50;99.90;;;;;;5034198;28;20029;-81
2021/06/22 11:13:07;;;;;;;4.10;3.25;;;20.60;99.90;;;;;;5032945;28;20029;-80
2021/06/22 11:15:51;;;;;;;4.57;2.90;;;20.70;99.90;;;;;;5034231;28;20026;-80
2021/06/22 11:18:18;;;;;;;4.55;3.97;;;20.80;99.90;;;;;;5032839;28;20035;-81
2021/06/22 11:21:28;;;;;;;4.93;3.58;;;20.70;99.90;;;;;;5033304;28;20374;-81
2021/06/22 11:24:15;;;;;;;5.18;3.40;;;20.50;99.90;;;;;;5019608;28;20034;-81
2021/06/22 11:26:41;;;;;;;5.43;3.47;;;20.60;99.90;;;;;;5032819;28;20025;-81
2021/06/22 11:29:08;;;;;;;6.80;3.80;;;20.60;99.90;;;;;;5032586;28;20092;-81
2021/06/22 11:32:07;;;;;;;6.70;3.25;;;20.70;99.90;;;;;;5016499;28;20056;-81
2021/06/22 11:34:52;;;;;;;4.40;3.30;;;20.80;99.90;;;;;;5029525;28;20034;-80
2021/06/22 11:37:20;;;;;;;5.47;3.05;;;20.70;99.90;;;;;;5032449;28;20084;-81
2021/06/22 11:40:04;;;;;;;4.72;2.75;;;20.70;99.90;;;;;;5032425;28;20079;-80
2021/06/22 11:42:34;;;;;;;3.28;2.67;;;20.90;99.90;;;;;;5032563;28;20029;-81
2021/06/22 11:45:21;;;;;;;4.47;3.40;;;20.80;99.90;;;;;;5032737;28;20539;-81
2021/06/22 11:47:47;;;;;;;4.95;3.60;;;20.60;99.90;;;;;;5032542;28;20501;-81
2021/06/22 11:50:13;;;;;;;5.50;3.80;;;20.50;99.90;;;;;;5032321;28;20388;-81
2021/06/22 11:52:42;;;;;;;4.63;3.08;;;20.40;99.90;;;;;;5032325;28;20025;-80
2021/06/22 11:55:17;;;;;;;7.70;3.20;;;20.40;99.90;;;;;;5032518;28;20167;-80
2021/06/22 11:57:45;;;;;;;;;;;20.40;99.90;;;;;;5034025;28;20381;-80
2021/06/22 12:00:15;;;;;;;4.40;2.90;;;20.20;99.90;;;;;;5033517;28;19905;-80
2021/06/22 12:02:55;;;;;;;3.38;3.08;;;20.20;99.90;;;;;;5032200;28;20393;-80
2021/06/22 12:05:24;;;;;;;5.18;3.35;;;20.20;99.90;;;;;;5033490;28;20026;-80
2021/06/22 12:07:58;;;;;;;6.80;3.97;;;20.10;99.90;;;;;;5032150;28;20026;-80
2021/06/22 12:10:43;;;;;;;6.10;3.63;;;20.00;99.90;;;;;;5032063;28;20500;-80
2021/06/22 12:13:10;;;;;;;3.80;3.17;;;20.00;99.90;;;;;;5032106;28;20036;-80
2021/06/22 12:15:43;;;;;;;6.53;4.25;;;20.00;99.90;;;;;;5032009;28;20063;-80
2021/06/22 12:18:10;;;;;;;5.53;4.32;;;19.90;99.90;;;;;;5032035;28;20028;-80
2021/06/22 12:20:41;;;;;;;5.93;4.50;;;19.90;99.90;;;;;;5033208;28;20033;-79
2021/06/22 12:23:13;;;;;;;5.90;3.85;;;19.70;99.90;;;;;;5031886;28;20029;-80
2021/06/22 12:25:44;;;;;;;6.25;4.00;;;19.70;99.90;;;;;;5033246;28;20033;-79
2021/06/22 12:28:11;;;;;;;6.35;3.75;;;19.70;99.90;;;;;;5031911;28;20381;-79
2021/06/22 12:30:42;;;;;;;7.13;4.53;;;20.00;99.90;;;;;;5033091;28;20027;-79
2021/06/22 12:33:18;;;;;;;5.97;4.13;;;19.90;99.90;;;;;;5031866;28;20117;-79
2021/06/22 12:35:47;;;;;;;6.72;4.53;;;19.80;99.90;;;;;;5034502;28;20530;-79
2021/06/22 12:38:16;;;;;;;5.82;4.72;;;19.90;99.90;;;;;;5035906;28;20564;-79
2021/06/22 12:40:43;;;;;;;7.18;4.72;;;20.00;99.90;;;;;;5035871;28;20095;-79
2021/06/22 12:43:09;;;;;;;7.07;4.13;;;20.20;99.90;;;;;;5035801;28;20112;-80
2021/06/22 12:45:35;;;;;;;8.77;4.22;;;20.40;99.90;;;;;;5037025;28;20421;-80
2021/06/22 12:48:01;;;;;;;6.15;4.30;;;20.90;99.90;;;;;;5037223;28;20432;-80
2021/06/22 12:50:41;;;;;;;4.97;3.78;;;22.10;99.90;;;;;;5035616;28;20535;-80
2021/06/22 12:53:11;;;;;;;4.97;3.83;;;23.20;99.90;;;;;;5035897;28;20025;-80
2021/06/22 12:55:58;;;;;;;6.35;3.58;;;23.10;99.90;;;;;;5037290;28;20381;-80